HomeShort term forecast

Short term forecast

Graphical weather forecast for the next 48 hours for Montreal:
Short term forecast
This weather forecast is automatically refreshed every 3 hours.

Hourly Experimental Forecast for the next 48 hours

Overall summary: Partly cloudy until this evening.

 Date & Hour   Temp   Feel   Baro   Hum   Speed & Bearing   Wind Gust   Precip.%   Precip.   Visibility   Cloud cover   Conditions 
 16/02/2019 - 11:00  -3.7°C  -10.9°C  1010.2 hPa  69%  26.8 km/h   26.8 km/h  0%  --  16.1km  55%  Partly Cloudy 
 16/02/2019 - 12:00  -4.6°C  -11.9°C  1010.6 hPa  73%  25.5 km/h   29.9 km/h  4%  0.04 mm/h  16.1km  29%  Partly Cloudy 
 16/02/2019 - 13:00  -5.1°C  -12.2°C  1011.0 hPa  75%  22.7 km/h   34.0 km/h  0%  --  16.1km  14%  Clear 
 16/02/2019 - 14:00  -4.9°C  -11.8°C  1011.7 hPa  73%  22.5 km/h   33.9 km/h  0%  --  16.1km  20%  Clear 
 16/02/2019 - 15:00  -4.4°C  -11.1°C  1012.7 hPa  71%  22.1 km/h   34.3 km/h  0%  --  16.1km  25%  Partly Cloudy 
 16/02/2019 - 16:00  -4.5°C  -11.1°C  1013.6 hPa  70%  21.2 km/h   35.0 km/h  2%  0.01 mm/h  16.1km  29%  Partly Cloudy 
 16/02/2019 - 17:00  -5.2°C  -11.6°C  1014.6 hPa  71%  18.6 km/h   34.4 km/h  0%  --  16.1km  28%  Partly Cloudy 
 16/02/2019 - 18:00  -6.4°C  -12.4°C  1015.4 hPa  72%  15.5 km/h   29.2 km/h  2%  0.04 mm/h  16.1km  25%  Partly Cloudy 
 16/02/2019 - 19:00  -7.5°C  -13.4°C  1016.3 hPa  73%  13.8 km/h   27.6 km/h  0%  --  16.1km  23%  Clear 
 16/02/2019 - 20:00  -8.3°C  -14.2°C  1017.1 hPa  72%  13.1 km/h   25.6 km/h  1%  0.01 mm/h  16.1km  21%  Clear 
 16/02/2019 - 21:00  -8.9°C  -14.8°C  1017.8 hPa  70%  12.6 km/h   22.4 km/h  0%  --  16.1km  20%  Clear 
 16/02/2019 - 22:00  -9.6°C  -15.5°C  1018.4 hPa  68%  12.3 km/h   19.3 km/h  2%  0.03 mm/h  16.1km  19%  Clear 
 16/02/2019 - 23:00  -10.5°C  -16.3°C  1019.0 hPa  67%  11.5 km/h   16.5 km/h  1%  0.01 mm/h  16.1km  17%  Clear 
 17/02/2019 - 00:00  -12.1°C  -17.8°C  1019.5 hPa  72%  10.4 km/h   11.4 km/h  0%  --  16.1km  21%  Clear 
 17/02/2019 - 01:00  -13.0°C  -18.7°C  1020.2 hPa  72%  9.5 km/h   9.6 km/h  0%  --  16.1km  17%  Clear 
 17/02/2019 - 02:00  -13.8°C  -19.3°C  1020.9 hPa  72%  8.9 km/h   9.0 km/h  0%  --  16.1km  13%  Clear 
 17/02/2019 - 03:00  -14.5°C  -19.9°C  1021.7 hPa  72%  8.5 km/h   8.5 km/h  0%  --  15.7km  10%  Clear 
 17/02/2019 - 04:00  -15.2°C  -20.6°C  1022.4 hPa  73%  8.0 km/h   8.0 km/h  0%  --  14.4km  8%  Clear 
 17/02/2019 - 05:00  -16.3°C  -21.5°C  1022.9 hPa  75%  7.3 km/h   7.3 km/h  0%  --  14.2km  6%  Clear 
 17/02/2019 - 06:00  -17.4°C  -22.4°C  1023.3 hPa  76%  6.5 km/h   6.6 km/h  0%  --  14.8km  5%  Clear 
 17/02/2019 - 07:00  -17.0°C  -21.4°C  1023.8 hPa  72%  5.8 km/h   5.9 km/h  0%  --  15.8km  4%  Clear 
 17/02/2019 - 08:00  -16.1°C  -20.0°C  1024.6 hPa  72%  5.3 km/h   6.4 km/h  0%  --  16.1km  3%  Clear 
 17/02/2019 - 09:00  -14.8°C  -14.8°C  1025.6 hPa  73%  4.7 km/h   7.4 km/h  0%  --  16.1km  3%  Clear 
 17/02/2019 - 10:00  -13.2°C  -13.2°C  1025.9 hPa  71%  4.0 km/h   7.5 km/h  0%  --  16.1km  3%  Clear 
 17/02/2019 - 11:00  -12.1°C  -12.1°C  1025.4 hPa  70%  4.1 km/h   6.2 km/h  0%  --  16.1km  3%  Clear 
 17/02/2019 - 12:00  -11.2°C  -11.2°C  1024.3 hPa  69%  4.4 km/h   4.6 km/h  0%  --  16.1km  4%  Clear 
 17/02/2019 - 13:00  -10.5°C  -10.5°C  1023.4 hPa  68%  4.6 km/h   4.8 km/h  0%  --  16.1km  10%  Clear 
 17/02/2019 - 14:00  -9.9°C  -9.9°C  1022.9 hPa  67%  4.7 km/h   4.8 km/h  0%  --  16.1km  37%  Partly Cloudy 
 17/02/2019 - 15:00  -9.3°C  -9.3°C  1022.6 hPa  65%  4.6 km/h   4.6 km/h  0%  --  16.1km  71%  Mostly Cloudy 
 17/02/2019 - 16:00  -9.3°C  -9.3°C  1022.4 hPa  65%  4.5 km/h   4.6 km/h  0%  --  16.1km  97%  Overcast 
 17/02/2019 - 17:00  -9.7°C  -9.7°C  1022.2 hPa  66%  4.5 km/h   5.1 km/h  0%  --  16.1km  100%  Overcast 
 17/02/2019 - 18:00  -10.5°C  -10.5°C  1022.1 hPa  67%  4.4 km/h   5.9 km/h  1%  0.01 mm/h  16.1km  100%  Overcast 
 17/02/2019 - 19:00  -11.2°C  -11.2°C  1022.0 hPa  69%  4.5 km/h   6.5 km/h  1%  0.01 mm/h  16.1km  99%  Overcast 
 17/02/2019 - 20:00  -11.7°C  -11.7°C  1021.8 hPa  70%  4.7 km/h   6.5 km/h  0%  --  16.1km  94%  Overcast 
 17/02/2019 - 21:00  -12.1°C  -15.3°C  1021.6 hPa  71%  4.9 km/h   6.4 km/h  0%  --  16.1km  85%  Mostly Cloudy 
 17/02/2019 - 22:00  -12.6°C  -16.1°C  1021.3 hPa  72%  5.4 km/h   7.4 km/h  0%  --  16.1km  79%  Mostly Cloudy 
 17/02/2019 - 23:00  -13.6°C  -17.7°C  1020.9 hPa  76%  6.1 km/h   10.1 km/h  0%  --  16.1km  77%  Mostly Cloudy 
 18/02/2019 - 00:00  -14.5°C  -19.3°C  1020.5 hPa  79%  7.2 km/h   13.7 km/h  0%  --  16.1km  78%  Mostly Cloudy 
 18/02/2019 - 01:00  -15.1°C  -20.8°C  1020.0 hPa  80%  8.9 km/h   18.1 km/h  0%  --  13.0km  80%  Mostly Cloudy 
 18/02/2019 - 02:00  -14.8°C  -21.5°C  1019.4 hPa  78%  11.2 km/h   23.3 km/h  0%  --  15.0km  86%  Mostly Cloudy 
 18/02/2019 - 03:00  -13.5°C  -20.8°C  1018.7 hPa  71%  13.9 km/h   29.1 km/h  0%  --  16.1km  94%  Overcast 
 18/02/2019 - 04:00  -12.9°C  -20.6°C  1018.2 hPa  68%  16.1 km/h   33.9 km/h  0%  --  16.1km  100%  Overcast 
 18/02/2019 - 05:00  -12.8°C  -20.9°C  1018.1 hPa  67%  17.6 km/h   37.3 km/h  3%  0.02 mm/h  16.1km  100%  Overcast 
 18/02/2019 - 06:00  -13.0°C  -21.3°C  1018.3 hPa  67%  18.7 km/h   39.8 km/h  5%  0.07 mm/h  15.3km  100%  Overcast 
 18/02/2019 - 07:00  -13.5°C  -22.2°C  1018.4 hPa  70%  19.7 km/h   40.8 km/h  5%  0.13 mm/h  12.3km  99%  Possible Light Snow 
 18/02/2019 - 08:00  -13.4°C  -22.4°C  1018.4 hPa  72%  20.8 km/h   40.2 km/h  5%  0.17 mm/h  12.6km  100%  Possible Light Snow 
 18/02/2019 - 09:00  -13.1°C  -22.1°C  1018.4 hPa  72%  21.9 km/h   38.3 km/h  7%  0.19 mm/h  12.8km  100%  Possible Light Snow 
 18/02/2019 - 10:00  -12.7°C  -21.7°C  1018.2 hPa  74%  22.2 km/h   35.3 km/h  7%  0.19 mm/h  13.1km  100%  Possible Light Snow 
Test

 

Past weather and reports

Past weatherFind in this section the past weather conditions, weather archive, graphics, reports and statistics.

Current conditions

Current weather condition for MontrealAll you need to know about the current weather conditions for Montreal. Weather data is updated every 10 minutes.

Weather forecast

Current Montreal weatherSince 2004, celinium.com website has provided accurate weather forecast for Montreal's island.